createdAt,value
2022-09-17T00:01:34.135Z,11.50
2022-09-17T00:04:04.887Z,11.40
2022-09-17T00:06:35.650Z,11.40
2022-09-17T00:09:04.439Z,11.40
2022-09-17T00:11:35.106Z,11.40
2022-09-17T00:14:05.065Z,11.40
2022-09-17T00:16:37.926Z,11.30
2022-09-17T00:19:08.254Z,11.30
2022-09-17T00:21:36.386Z,11.30
2022-09-17T00:24:06.397Z,11.30
2022-09-17T00:26:36.779Z,11.20
2022-09-17T00:29:06.218Z,11.30
2022-09-17T00:31:36.557Z,11.20
2022-09-17T00:34:06.208Z,11.20
2022-09-17T00:36:36.452Z,11.20
2022-09-17T00:39:06.376Z,11.20
2022-09-17T00:41:36.705Z,11.20
2022-09-17T00:44:34.482Z,11.20
2022-09-17T00:47:04.314Z,11.10
2022-09-17T00:49:33.648Z,11.20
2022-09-17T00:52:07.343Z,11.10
2022-09-17T00:54:36.434Z,11.10
2022-09-17T00:57:04.946Z,11.00
2022-09-17T00:59:33.670Z,11.10
2022-09-17T01:02:03.347Z,11.10
2022-09-17T01:04:31.690Z,11.10
2022-09-17T01:07:07.208Z,11.10
2022-09-17T01:09:44.218Z,11.10
2022-09-17T01:12:25.282Z,11.10
2022-09-17T01:15:09.964Z,11.10
2022-09-17T01:17:44.711Z,11.00
2022-09-17T01:20:48.383Z,10.90
2022-09-17T01:23:50.692Z,10.90
2022-09-17T01:26:37.191Z,10.90
2022-09-17T01:29:16.311Z,10.80
2022-09-17T01:31:52.181Z,10.90
2022-09-17T01:34:27.416Z,10.90
2022-09-17T01:37:10.581Z,10.90
2022-09-17T01:39:48.069Z,10.90
2022-09-17T01:42:23.351Z,10.90
2022-09-17T01:44:57.977Z,10.80
2022-09-17T01:47:32.836Z,10.80
2022-09-17T01:50:06.077Z,10.70
2022-09-17T01:52:37.600Z,10.60
2022-09-17T01:55:08.680Z,10.60
2022-09-17T01:57:42.487Z,10.60
2022-09-17T02:00:13.734Z,10.50
2022-09-17T02:02:48.886Z,10.50
2022-09-17T02:05:21.147Z,10.60
2022-09-17T02:07:55.342Z,10.60
2022-09-17T02:10:28.410Z,10.60
2022-09-17T02:13:01.348Z,10.60
2022-09-17T02:15:37.707Z,10.60
2022-09-17T02:18:11.127Z,10.60
2022-09-17T02:20:44.755Z,10.50
2022-09-17T02:23:17.929Z,10.50
2022-09-17T02:25:53.777Z,10.50
2022-09-17T02:28:28.895Z,10.60
2022-09-17T02:30:57.218Z,10.60
2022-09-17T02:33:27.721Z,10.50
2022-09-17T02:35:55.946Z,10.60
2022-09-17T02:38:26.928Z,10.50
2022-09-17T02:41:05.390Z,10.60
2022-09-17T02:43:39.816Z,10.60
2022-09-17T02:46:32.088Z,10.50
2022-09-17T02:49:20.354Z,10.60
2022-09-17T02:51:59.302Z,10.60
2022-09-17T02:54:31.768Z,10.60
2022-09-17T02:57:08.727Z,10.60
2022-09-17T02:59:43.790Z,10.60
2022-09-17T03:02:19.082Z,10.60
2022-09-17T03:04:51.190Z,10.70
2022-09-17T03:07:21.695Z,10.70
2022-09-17T03:09:50.270Z,10.70
2022-09-17T03:12:18.689Z,10.70
2022-09-17T03:14:46.890Z,10.70
2022-09-17T03:17:15.129Z,10.70
2022-09-17T03:19:43.285Z,10.70
2022-09-17T03:22:12.872Z,10.60
2022-09-17T03:24:41.101Z,10.60
2022-09-17T03:27:09.306Z,10.60
2022-09-17T03:29:37.438Z,10.60
2022-09-17T03:32:06.131Z,10.50
2022-09-17T03:34:34.566Z,10.50
2022-09-17T03:37:04.151Z,10.50
2022-09-17T03:39:33.679Z,10.50
2022-09-17T03:42:01.916Z,10.40
2022-09-17T03:44:30.086Z,10.40
2022-09-17T03:46:58.300Z,10.50
2022-09-17T03:49:26.478Z,10.40
2022-09-17T03:51:54.683Z,10.40
2022-09-17T03:54:22.968Z,10.50
2022-09-17T03:56:52.522Z,10.50
2022-09-17T03:59:20.759Z,10.40
2022-09-17T04:01:49.057Z,10.50
2022-09-17T04:04:17.336Z,10.40
2022-09-17T04:06:45.490Z,10.40
2022-09-17T04:09:13.642Z,10.40
2022-09-17T04:11:41.854Z,10.30
2022-09-17T04:14:11.450Z,10.40
2022-09-17T04:16:39.590Z,10.40
2022-09-17T04:19:08.621Z,10.40
2022-09-17T04:21:36.941Z,10.40
2022-09-17T04:24:05.383Z,10.40
2022-09-17T04:26:33.626Z,10.50
2022-09-17T04:29:02.191Z,10.50
2022-09-17T04:31:31.813Z,10.50
2022-09-17T04:34:00.263Z,10.50
2022-09-17T04:36:28.605Z,10.50
2022-09-17T04:38:56.760Z,10.50
2022-09-17T04:41:24.975Z,10.50
2022-09-17T04:43:53.179Z,10.40
2022-09-17T04:46:21.544Z,10.50
2022-09-17T04:48:51.131Z,10.40
2022-09-17T04:51:19.447Z,10.30
2022-09-17T04:53:47.623Z,10.40
2022-09-17T04:56:15.756Z,10.40
2022-09-17T04:58:44.103Z,10.30
2022-09-17T05:01:13.901Z,10.40
2022-09-17T05:03:42.247Z,10.40
2022-09-17T05:06:11.830Z,10.40
2022-09-17T05:08:39.949Z,10.40
2022-09-17T05:11:08.175Z,10.40
2022-09-17T05:13:36.319Z,10.40
2022-09-17T05:16:04.748Z,10.50
2022-09-17T05:18:32.951Z,10.50
2022-09-17T05:21:01.114Z,10.50
2022-09-17T05:23:30.634Z,10.40
2022-09-17T05:26:00.121Z,10.40
2022-09-17T05:28:28.308Z,10.50
2022-09-17T05:30:59.508Z,10.50
2022-09-17T05:33:27.803Z,10.60
2022-09-17T05:35:56.343Z,10.60
2022-09-17T05:38:24.684Z,10.70
2022-09-17T05:40:54.336Z,10.70
2022-09-17T05:43:22.527Z,10.80
2022-09-17T05:45:50.678Z,10.90
2022-09-17T05:48:18.879Z,11.00
2022-09-17T05:50:47.080Z,10.90
2022-09-17T05:53:16.245Z,11.00
2022-09-17T05:55:44.389Z,11.10
2022-09-17T05:58:15.761Z,11.10
2022-09-17T06:00:44.457Z,11.10
2022-09-17T06:03:13.789Z,11.20
2022-09-17T06:05:42.428Z,11.30
2022-09-17T06:08:11.138Z,11.40
2022-09-17T06:10:40.184Z,11.50
2022-09-17T06:13:08.706Z,11.70
2022-09-17T06:15:38.292Z,11.70
2022-09-17T06:18:06.582Z,11.70
2022-09-17T06:20:34.768Z,11.60
2022-09-17T06:23:02.976Z,11.50
2022-09-17T06:25:31.812Z,11.50
2022-09-17T06:27:59.986Z,11.50
2022-09-17T06:30:28.278Z,11.50
2022-09-17T06:33:00.365Z,11.50
2022-09-17T06:35:28.514Z,11.40
2022-09-17T06:37:56.678Z,11.40
2022-09-17T06:40:24.968Z,11.40
2022-09-17T06:42:58.656Z,11.40
2022-09-17T06:45:27.111Z,11.40
2022-09-17T06:47:55.294Z,11.40
2022-09-17T06:50:25.410Z,11.40
2022-09-17T06:52:55.328Z,11.40
2022-09-17T06:55:23.543Z,11.40
2022-09-17T06:57:51.718Z,11.40
2022-09-17T07:00:20.110Z,11.40
2022-09-17T07:02:57.729Z,11.60
2022-09-17T07:05:28.675Z,11.70
2022-09-17T07:07:57.224Z,11.70
2022-09-17T07:10:26.882Z,11.80
2022-09-17T07:12:55.639Z,11.90
2022-09-17T07:15:24.346Z,11.90
2022-09-17T07:17:53.329Z,12.00
2022-09-17T07:20:21.549Z,12.00
2022-09-17T07:22:58.266Z,12.10
2022-09-17T07:25:27.535Z,12.00
2022-09-17T07:27:56.603Z,12.10
2022-09-17T07:30:24.951Z,12.40
2022-09-17T07:32:53.740Z,12.60
2022-09-17T07:35:21.910Z,12.70
2022-09-17T07:37:50.093Z,12.60
2022-09-17T07:40:20.009Z,12.50
2022-09-17T07:42:48.220Z,12.50
2022-09-17T07:45:16.754Z,12.50
2022-09-17T07:47:44.950Z,12.50
2022-09-17T07:50:13.200Z,12.40
2022-09-17T07:52:47.254Z,12.30
2022-09-17T07:55:16.689Z,12.30
2022-09-17T07:57:52.507Z,12.30
2022-09-17T08:00:20.921Z,12.30
2022-09-17T08:02:54.665Z,12.40
2022-09-17T08:05:23.347Z,12.50
2022-09-17T08:07:52.088Z,12.50
2022-09-17T08:10:22.022Z,12.50
2022-09-17T08:12:52.130Z,12.60
2022-09-17T08:15:20.455Z,12.70
2022-09-17T08:17:49.263Z,12.70
2022-09-17T08:20:18.499Z,12.70
2022-09-17T08:22:49.994Z,12.90
2022-09-17T08:25:18.862Z,12.90
2022-09-17T08:27:47.067Z,12.90
2022-09-17T08:30:16.831Z,13.00
2022-09-17T08:32:45.082Z,13.00
2022-09-17T08:35:13.408Z,13.10
2022-09-17T08:37:41.595Z,13.20
2022-09-17T08:40:15.788Z,13.10
2022-09-17T08:42:54.237Z,13.10
2022-09-17T08:45:24.084Z,13.20
2022-09-17T08:47:52.332Z,13.10
2022-09-17T08:50:28.724Z,13.20
2022-09-17T08:53:27.826Z,13.10
2022-09-17T08:56:01.937Z,13.20
2022-09-17T08:58:49.734Z,13.50
2022-09-17T09:01:31.955Z,13.70
2022-09-17T09:04:13.811Z,13.90
2022-09-17T09:06:47.956Z,13.80
2022-09-17T09:09:18.300Z,13.80
2022-09-17T09:11:48.906Z,13.80
2022-09-17T09:14:22.179Z,13.80
2022-09-17T09:16:53.591Z,13.80
2022-09-17T09:19:24.590Z,13.70
2022-09-17T09:22:02.925Z,13.50
2022-09-17T09:24:40.793Z,13.60
2022-09-17T09:27:18.902Z,13.80
2022-09-17T09:30:02.172Z,14.10
2022-09-17T09:32:46.372Z,13.80
2022-09-17T09:35:19.451Z,13.80
2022-09-17T09:37:55.176Z,13.90
2022-09-17T09:40:37.687Z,14.20
2022-09-17T09:43:15.867Z,14.00
2022-09-17T09:46:08.669Z,14.00
2022-09-17T09:48:45.902Z,14.10
2022-09-17T09:51:26.917Z,14.50
2022-09-17T09:54:10.309Z,14.50
2022-09-17T09:56:52.359Z,14.20
2022-09-17T09:59:20.858Z,14.30
2022-09-17T10:01:49.510Z,14.30
2022-09-17T10:04:21.912Z,14.50
2022-09-17T10:06:53.330Z,14.70
2022-09-17T10:09:22.781Z,14.60
2022-09-17T10:12:06.436Z,14.70
2022-09-17T10:14:37.482Z,14.80
2022-09-17T10:17:22.063Z,15.00
2022-09-17T10:20:20.742Z,15.00
2022-09-17T10:22:51.438Z,15.00
2022-09-17T10:25:29.806Z,14.70
2022-09-17T10:27:59.642Z,14.60
2022-09-17T10:30:28.474Z,14.60
2022-09-17T10:33:15.932Z,14.70
2022-09-17T10:35:56.706Z,14.70
2022-09-17T10:38:30.331Z,14.90
2022-09-17T10:41:15.815Z,15.20
2022-09-17T10:43:44.292Z,15.40
2022-09-17T10:46:17.216Z,15.30
2022-09-17T10:48:52.447Z,14.90
2022-09-17T10:51:27.067Z,14.60
2022-09-17T10:54:14.900Z,14.10
2022-09-17T10:56:48.819Z,13.90
2022-09-17T10:59:56.499Z,13.70
2022-09-17T11:02:56.032Z,13.40
2022-09-17T11:05:42.662Z,13.70
2022-09-17T11:08:21.718Z,13.80
2022-09-17T11:10:59.277Z,13.80
2022-09-17T11:13:36.939Z,13.90
2022-09-17T11:16:16.200Z,14.00
2022-09-17T11:18:46.648Z,14.00
2022-09-17T11:21:45.463Z,14.10
2022-09-17T11:24:45.820Z,14.10
2022-09-17T11:27:34.555Z,14.10
2022-09-17T11:30:09.390Z,14.10
2022-09-17T11:33:04.513Z,14.10
2022-09-17T11:35:36.294Z,14.20
2022-09-17T11:38:09.927Z,14.40
2022-09-17T11:40:44.250Z,14.60
2022-09-17T11:43:22.798Z,14.70
2022-09-17T11:46:00.253Z,14.90
2022-09-17T11:48:35.068Z,14.80
2022-09-17T11:51:11.394Z,14.50
2022-09-17T11:53:45.009Z,14.20
2022-09-17T11:56:21.449Z,14.00
2022-09-17T11:58:53.862Z,13.60
2022-09-17T12:01:29.916Z,13.30
2022-09-17T12:04:00.736Z,13.20
2022-09-17T12:06:38.103Z,13.10
2022-09-17T12:09:13.059Z,13.30
2022-09-17T12:11:49.535Z,13.40
2022-09-17T12:14:23.455Z,13.60
2022-09-17T12:16:58.552Z,13.80
2022-09-17T12:19:32.335Z,14.00
2022-09-17T12:22:06.302Z,14.10
2022-09-17T12:24:34.553Z,14.20
2022-09-17T12:27:21.220Z,14.30
2022-09-17T12:30:10.647Z,14.30
2022-09-17T12:33:14.321Z,14.40
2022-09-17T12:36:17.187Z,14.60
2022-09-17T12:39:08.167Z,14.80
2022-09-17T12:41:56.433Z,14.80
2022-09-17T12:44:55.998Z,15.00
2022-09-17T12:48:03.048Z,14.90
2022-09-17T12:50:48.096Z,15.00
2022-09-17T12:53:24.497Z,14.90
2022-09-17T12:56:16.731Z,14.70
2022-09-17T12:58:59.573Z,14.60
2022-09-17T13:01:34.714Z,14.40
2022-09-17T13:04:43.560Z,13.30
2022-09-17T13:07:48.640Z,12.70
2022-09-17T13:10:51.083Z,12.60
2022-09-17T13:13:34.623Z,12.60
2022-09-17T13:16:14.359Z,12.70
2022-09-17T13:19:15.427Z,12.80
2022-09-17T13:21:52.757Z,12.80
2022-09-17T13:24:25.066Z,12.80
2022-09-17T13:26:54.748Z,12.70
2022-09-17T13:30:02.044Z,12.80
2022-09-17T13:32:47.742Z,12.90
2022-09-17T13:35:54.200Z,13.00
2022-09-17T13:38:24.630Z,12.90
2022-09-17T13:40:53.338Z,13.10
2022-09-17T13:43:26.598Z,13.10
2022-09-17T13:46:28.758Z,12.80
2022-09-17T13:49:00.972Z,12.90
2022-09-17T13:51:53.805Z,13.00
2022-09-17T13:54:24.350Z,12.90
2022-09-17T13:57:14.480Z,12.70
2022-09-17T13:59:55.813Z,12.90
2022-09-17T14:02:39.232Z,13.10
2022-09-17T14:05:32.066Z,13.30
2022-09-17T14:08:31.313Z,13.50
2022-09-17T14:11:02.397Z,13.50
2022-09-17T14:13:51.579Z,13.50
2022-09-17T14:16:37.178Z,13.50
2022-09-17T14:19:34.198Z,13.50
2022-09-17T14:22:14.384Z,13.40
2022-09-17T14:24:51.277Z,13.60
2022-09-17T14:27:43.930Z,13.80
2022-09-17T14:30:19.011Z,13.90
2022-09-17T14:32:55.247Z,14.00
2022-09-17T14:35:27.477Z,14.10
2022-09-17T14:37:59.093Z,13.90
2022-09-17T14:40:29.993Z,13.80
2022-09-17T14:42:59.395Z,13.50
2022-09-17T14:45:30.691Z,12.80
2022-09-17T14:48:21.501Z,12.30
2022-09-17T14:50:50.066Z,12.30
2022-09-17T14:53:21.059Z,12.30
2022-09-17T14:55:52.130Z,12.20
2022-09-17T14:58:32.229Z,12.10
2022-09-17T15:01:00.740Z,12.00
2022-09-17T15:03:30.100Z,12.20
2022-09-17T15:05:58.568Z,12.10
2022-09-17T15:08:29.155Z,12.20
2022-09-17T15:11:02.531Z,12.20
2022-09-17T15:13:32.302Z,12.20
2022-09-17T15:16:04.118Z,12.30
2022-09-17T15:18:38.559Z,12.40
2022-09-17T15:21:13.041Z,12.40
2022-09-17T15:23:42.676Z,12.40
2022-09-17T15:26:14.643Z,12.40
2022-09-17T15:28:46.072Z,12.50
2022-09-17T15:31:19.014Z,12.50
2022-09-17T15:33:47.851Z,12.60
2022-09-17T15:36:22.582Z,12.50
2022-09-17T15:38:51.986Z,12.50
2022-09-17T15:41:39.715Z,12.60
2022-09-17T15:44:29.142Z,12.70
2022-09-17T15:47:32.227Z,12.80
2022-09-17T15:50:15.777Z,13.10
2022-09-17T15:52:44.652Z,13.20
2022-09-17T15:55:33.577Z,13.20
2022-09-17T15:58:06.843Z,13.20
2022-09-17T16:00:35.293Z,13.20
2022-09-17T16:04:06.827Z,13.10
2022-09-17T16:06:39.354Z,13.10
2022-09-17T16:09:43.113Z,13.10
2022-09-17T16:12:15.070Z,13.10
2022-09-17T16:14:50.067Z,13.00
2022-09-17T16:17:36.683Z,12.90
2022-09-17T16:20:11.143Z,13.00
2022-09-17T16:22:40.101Z,13.00
2022-09-17T16:25:09.045Z,12.90
2022-09-17T16:27:46.179Z,12.80
2022-09-17T16:30:18.683Z,12.70
2022-09-17T16:32:47.253Z,12.70
2022-09-17T16:35:17.761Z,12.60
2022-09-17T16:37:48.811Z,12.60
2022-09-17T16:40:17.824Z,12.50
2022-09-17T16:42:46.678Z,12.50
2022-09-17T16:45:17.533Z,12.50
2022-09-17T16:47:45.755Z,12.40
2022-09-17T16:50:15.672Z,12.40
2022-09-17T16:52:44.997Z,12.40
2022-09-17T16:55:14.868Z,12.40
2022-09-17T16:57:43.325Z,12.30
2022-09-17T17:00:16.054Z,12.20
2022-09-17T17:02:45.987Z,12.20
2022-09-17T17:05:14.174Z,12.20
2022-09-17T17:07:42.347Z,12.20
2022-09-17T17:10:11.241Z,12.10
2022-09-17T17:12:39.535Z,12.10
2022-09-17T17:15:09.215Z,12.00
2022-09-17T17:17:37.773Z,12.00
2022-09-17T17:20:09.787Z,12.00
2022-09-17T17:22:38.396Z,12.00
2022-09-17T17:25:07.811Z,12.00
2022-09-17T17:27:36.455Z,12.00
2022-09-17T17:30:06.805Z,12.00
2022-09-17T17:32:35.532Z,12.00
2022-09-17T17:35:04.088Z,11.90
2022-09-17T17:37:33.638Z,11.90
2022-09-17T17:40:05.359Z,11.90
2022-09-17T17:42:38.041Z,11.80
2022-09-17T17:45:07.597Z,11.80
2022-09-17T17:47:35.792Z,11.70
2022-09-17T17:50:04.158Z,11.70
2022-09-17T17:52:33.738Z,11.60
2022-09-17T17:55:01.856Z,11.60
2022-09-17T17:57:30.050Z,11.60
2022-09-17T17:59:58.242Z,11.60
2022-09-17T18:02:26.768Z,11.60
2022-09-17T18:04:54.993Z,11.60
2022-09-17T18:07:23.163Z,11.70
2022-09-17T18:09:52.662Z,11.70
2022-09-17T18:12:24.945Z,11.60
2022-09-17T18:14:54.950Z,11.50
2022-09-17T18:17:23.256Z,11.50
2022-09-17T18:19:52.116Z,11.50
2022-09-17T18:22:20.358Z,11.50
2022-09-17T18:24:48.622Z,11.40
2022-09-17T18:27:18.128Z,11.40
2022-09-17T18:29:46.310Z,11.40
2022-09-17T18:32:14.496Z,11.50
2022-09-17T18:34:42.972Z,11.50
2022-09-17T18:37:11.257Z,11.50
2022-09-17T18:42:29.107Z,11.50
2022-09-17T18:44:57.528Z,11.50
2022-09-17T18:47:25.816Z,11.50
2022-09-17T18:49:54.118Z,11.60
2022-09-17T18:52:22.702Z,11.60
2022-09-17T18:54:50.853Z,11.60
2022-09-17T18:57:19.037Z,11.60
2022-09-17T18:59:48.539Z,11.60
2022-09-17T19:02:16.905Z,11.50
2022-09-17T19:04:45.165Z,11.50
2022-09-17T19:07:13.296Z,11.50
2022-09-17T19:09:41.498Z,11.50
2022-09-17T19:12:09.669Z,11.40
2022-09-17T19:14:38.005Z,11.30
2022-09-17T19:17:08.921Z,11.40
2022-09-17T19:19:37.066Z,11.40
2022-09-17T19:22:07.823Z,11.40
2022-09-17T19:24:36.870Z,11.40
2022-09-17T19:27:05.225Z,11.50
2022-09-17T19:29:33.452Z,11.40
2022-09-17T19:32:01.962Z,11.50
2022-09-17T19:34:31.493Z,11.60
2022-09-17T19:36:59.778Z,11.60
2022-09-17T19:39:27.964Z,11.60
2022-09-17T19:41:56.787Z,11.70
2022-09-17T19:44:24.992Z,11.70
2022-09-17T19:46:53.816Z,11.60
2022-09-17T19:49:22.030Z,11.60
2022-09-17T19:51:51.789Z,11.50
2022-09-17T19:54:19.959Z,11.50
2022-09-17T19:56:48.182Z,11.50
2022-09-17T19:59:16.366Z,11.50
2022-09-17T20:01:49.314Z,11.40
2022-09-17T20:04:19.265Z,11.40
2022-09-17T20:06:47.545Z,11.40
2022-09-17T20:09:17.245Z,11.30
2022-09-17T20:11:45.548Z,11.40
2022-09-17T20:14:14.131Z,11.40
2022-09-17T20:16:43.482Z,11.40
2022-09-17T20:19:15.715Z,11.50
2022-09-17T20:21:44.153Z,11.50
2022-09-17T20:24:12.361Z,11.50
2022-09-17T20:26:41.919Z,11.50
2022-09-17T20:29:10.787Z,11.50
2022-09-17T20:31:39.187Z,11.50
2022-09-17T20:34:07.534Z,11.50
2022-09-17T20:36:36.617Z,11.50
2022-09-17T20:39:12.257Z,11.50
2022-09-17T20:41:43.099Z,11.60
2022-09-17T20:44:11.401Z,11.60
2022-09-17T20:46:39.612Z,11.60
2022-09-17T20:49:07.922Z,11.60
2022-09-17T20:51:36.170Z,11.50
2022-09-17T20:54:04.582Z,11.60
2022-09-17T20:56:34.681Z,11.50
2022-09-17T20:59:14.363Z,11.50
2022-09-17T21:01:44.828Z,11.50
2022-09-17T21:04:15.758Z,11.50
2022-09-17T21:06:45.247Z,11.50
2022-09-17T21:09:16.946Z,11.50
2022-09-17T21:11:46.227Z,11.40
2022-09-17T21:14:17.529Z,11.50
2022-09-17T21:16:46.658Z,11.40
2022-09-17T21:19:16.327Z,11.40
2022-09-17T21:21:44.856Z,11.40
2022-09-17T21:24:13.175Z,11.40
2022-09-17T21:26:41.414Z,11.40
2022-09-17T21:29:09.789Z,11.40
2022-09-17T21:31:39.849Z,11.40
2022-09-17T21:34:10.866Z,11.50
2022-09-17T21:36:41.062Z,11.40
2022-09-17T21:39:13.263Z,11.40
2022-09-17T21:41:42.849Z,11.30
2022-09-17T21:44:12.320Z,11.30
2022-09-17T21:46:43.106Z,11.30
2022-09-17T21:49:12.987Z,11.30
2022-09-17T21:51:42.587Z,11.20
2022-09-17T21:54:12.338Z,11.20
2022-09-17T21:56:40.675Z,11.20
2022-09-17T21:59:11.040Z,11.20
2022-09-17T22:01:43.525Z,11.20
2022-09-17T22:04:13.656Z,11.20
2022-09-17T22:06:42.726Z,11.20
2022-09-17T22:09:16.016Z,11.20
2022-09-17T22:11:44.202Z,11.20
2022-09-17T22:14:14.047Z,11.10
2022-09-17T22:16:45.811Z,11.20
2022-09-17T22:19:17.275Z,11.20
2022-09-17T22:21:47.433Z,11.10
2022-09-17T22:24:16.703Z,11.20
2022-09-17T22:26:46.590Z,11.10
2022-09-17T22:29:17.558Z,11.20
2022-09-17T22:31:49.160Z,11.20
2022-09-17T22:34:19.389Z,11.20
2022-09-17T22:36:48.215Z,11.10
2022-09-17T22:39:18.990Z,11.10
2022-09-17T22:41:47.364Z,11.10
2022-09-17T22:44:17.651Z,11.20
2022-09-17T22:46:49.123Z,11.10
2022-09-17T22:49:17.690Z,11.10
2022-09-17T22:51:46.631Z,11.10
2022-09-17T22:54:17.068Z,11.10
2022-09-17T22:56:45.707Z,11.10
2022-09-17T22:59:14.179Z,11.10
2022-09-17T23:01:43.328Z,11.10
2022-09-17T23:04:12.922Z,11.10
2022-09-17T23:06:43.023Z,11.00
2022-09-17T23:09:12.595Z,11.00
2022-09-17T23:11:41.089Z,10.90
2022-09-17T23:14:11.563Z,11.00
2022-09-17T23:16:41.625Z,11.00
2022-09-17T23:19:09.937Z,11.00
2022-09-17T23:21:40.121Z,11.00
2022-09-17T23:24:08.796Z,11.00
2022-09-17T23:26:37.033Z,11.10
2022-09-17T23:29:05.893Z,11.10
2022-09-17T23:31:35.825Z,11.10
2022-09-17T23:34:05.730Z,11.20
2022-09-17T23:36:36.304Z,11.20
2022-09-17T23:39:07.537Z,11.10
2022-09-17T23:41:37.242Z,11.00
2022-09-17T23:44:12.100Z,11.10
2022-09-17T23:46:42.342Z,11.10
2022-09-17T23:49:13.399Z,11.10
2022-09-17T23:51:41.661Z,11.00
2022-09-17T23:54:11.317Z,11.00
2022-09-17T23:56:39.570Z,11.00
2022-09-17T23:59:08.494Z,11.00
